Davis Wharf, Virginia
Current Conditions -  °F | °C
As of 8:15 PM on Sunday 23 Nov 2014 (Local Time) from KMFV Reporting Station
Overcast Overcast  
Wind Chill: 57°   Ceiling: 6000
Heat Index: 57°   Visibility: 10mi
Dew Point: 54°   Wind: 8mph
Humidity: 88%   Direction: 130°SE
Pressure: 30.02"   Gusts: NA
Location:  37.55°N, 75.88°W
Report Text: KMFV 240115Z AUTO 13007KT 10SM SCT047 OVC060 14/12 A3002 RMK AO2
Loading
Personal Weather Stations






























Interactive Weather Map New forecast layout! Learn more

10-Day Weather Forecast

Advertisements
Track Severe Weather on mobile